createdAt,value
2023-09-08T00:00:53.950Z,112.97
2023-09-08T00:03:22.964Z,113.97
2023-09-08T00:05:50.144Z,113.75
2023-09-08T00:08:18.947Z,112.20
2023-09-08T00:10:46.059Z,112.30
2023-09-08T00:13:13.144Z,111.53
2023-09-08T00:15:40.152Z,113.45
2023-09-08T00:18:07.329Z,113.20
2023-09-08T00:20:34.319Z,111.57
2023-09-08T00:23:01.244Z,111.70
2023-09-08T00:25:29.790Z,111.50
2023-09-08T00:27:56.745Z,110.63
2023-09-08T00:30:23.643Z,111.85
2023-09-08T00:32:50.704Z,111.05
2023-09-08T00:35:18.306Z,111.43
2023-09-08T00:37:45.314Z,114.47
2023-09-08T00:40:12.361Z,110.72
2023-09-08T00:42:40.894Z,110.85
2023-09-08T00:45:08.281Z,110.75
2023-09-08T00:47:36.224Z,112.22
2023-09-08T00:50:04.415Z,111.57
2023-09-08T00:52:33.603Z,110.28
2023-09-08T00:55:00.921Z,111.82
2023-09-08T00:57:28.035Z,110.75
2023-09-08T00:59:56.624Z,110.97
2023-09-08T01:02:23.820Z,112.32
2023-09-08T01:04:51.550Z,111.32
2023-09-08T01:07:21.696Z,112.35
2023-09-08T01:09:49.253Z,110.68
2023-09-08T01:12:17.130Z,111.53
2023-09-08T01:14:44.268Z,111.03
2023-09-08T01:17:13.667Z,110.28
2023-09-08T01:19:42.427Z,110.15
2023-09-08T01:22:31.163Z,110.82
2023-09-08T01:25:20.881Z,109.85
2023-09-08T01:27:50.908Z,109.63
2023-09-08T01:30:19.623Z,109.63
2023-09-08T01:32:49.460Z,110.72
2023-09-08T01:35:17.032Z,111.70
2023-09-08T01:37:47.210Z,110.20
2023-09-08T01:40:16.315Z,111.70
2023-09-08T01:42:43.841Z,110.95
2023-09-08T01:45:10.824Z,112.55
2023-09-08T01:47:38.579Z,111.20
2023-09-08T01:50:06.765Z,111.28
2023-09-08T01:52:33.770Z,112.35
2023-09-08T01:55:02.340Z,111.88
2023-09-08T01:57:31.109Z,113.13
2023-09-08T01:59:58.077Z,114.13
2023-09-08T02:02:26.039Z,111.68
2023-09-08T02:04:53.095Z,110.90
2023-09-08T02:07:20.265Z,113.10
2023-09-08T02:09:49.927Z,111.25
2023-09-08T02:12:17.164Z,109.43
2023-09-08T02:14:46.009Z,109.47
2023-09-08T02:17:14.293Z,109.05
2023-09-08T02:19:41.508Z,108.63
2023-09-08T02:22:10.339Z,108.15
2023-09-08T02:24:37.376Z,109.40
2023-09-08T02:27:05.002Z,110.43
2023-09-08T02:29:32.367Z,109.15
2023-09-08T02:32:00.673Z,109.35
2023-09-08T02:34:27.621Z,108.25
2023-09-08T02:36:55.160Z,109.53
2023-09-08T02:39:28.072Z,110.70
2023-09-08T02:41:56.031Z,109.35
2023-09-08T02:44:26.607Z,111.22
2023-09-08T02:46:53.908Z,110.28
2023-09-08T02:49:23.070Z,110.38
2023-09-08T02:51:50.035Z,112.13
2023-09-08T02:54:17.301Z,109.30
2023-09-08T02:56:44.288Z,110.30
2023-09-08T02:59:12.174Z,109.90
2023-09-08T03:01:39.192Z,111.38
2023-09-08T03:04:06.637Z,109.55
2023-09-08T03:06:36.209Z,110.70
2023-09-08T03:09:03.355Z,109.32
2023-09-08T03:11:30.830Z,110.30
2023-09-08T03:13:57.890Z,108.80
2023-09-08T03:16:24.862Z,114.32
2023-09-08T03:18:51.874Z,110.38
2023-09-08T03:21:18.864Z,108.55
2023-09-08T03:23:50.267Z,109.60
2023-09-08T03:26:17.457Z,107.88
2023-09-08T03:28:44.403Z,109.88
2023-09-08T03:31:11.629Z,108.22
2023-09-08T03:33:38.837Z,108.40
2023-09-08T03:36:08.366Z,110.85
2023-09-08T03:38:38.194Z,107.60
2023-09-08T03:41:07.747Z,109.82
2023-09-08T03:43:35.002Z,107.72
2023-09-08T03:46:02.766Z,110.28
2023-09-08T03:48:29.846Z,109.20
2023-09-08T03:50:56.958Z,108.40
2023-09-08T03:53:24.043Z,109.82
2023-09-08T03:55:51.663Z,110.38
2023-09-08T03:58:20.388Z,107.70
2023-09-08T04:00:49.703Z,107.03
2023-09-08T04:03:17.193Z,108.80
2023-09-08T04:05:44.528Z,108.75
2023-09-08T04:08:11.492Z,109.43
2023-09-08T04:10:38.505Z,112.90
2023-09-08T04:13:05.788Z,108.40
2023-09-08T04:15:35.229Z,111.95
2023-09-08T04:18:03.213Z,110.80
2023-09-08T04:20:30.304Z,109.47
2023-09-08T04:22:57.433Z,110.40
2023-09-08T04:25:26.105Z,111.18
2023-09-08T04:27:53.246Z,109.45
2023-09-08T04:30:20.334Z,110.82
2023-09-08T04:32:49.036Z,111.07
2023-09-08T04:35:16.175Z,108.78
2023-09-08T04:37:43.477Z,113.75
2023-09-08T04:40:11.295Z,109.72
2023-09-08T04:42:38.282Z,109.97
2023-09-08T04:45:07.183Z,111.30
2023-09-08T04:47:35.097Z,109.82
2023-09-08T04:50:03.600Z,110.65
2023-09-08T04:52:30.787Z,111.18
2023-09-08T04:54:57.759Z,110.72
2023-09-08T04:57:25.534Z,110.90
2023-09-08T05:02:24.397Z,109.30
2023-09-08T05:04:51.842Z,109.47
2023-09-08T05:07:20.499Z,110.78
2023-09-08T05:09:48.613Z,111.13
2023-09-08T05:12:15.637Z,109.88
2023-09-08T05:14:43.051Z,110.00
2023-09-08T05:17:10.450Z,109.95
2023-09-08T05:19:37.538Z,110.75
2023-09-08T05:22:06.684Z,110.38
2023-09-08T05:24:35.425Z,110.57
2023-09-08T05:27:02.432Z,112.32
2023-09-08T05:29:29.349Z,112.20
2023-09-08T05:31:56.557Z,111.00
2023-09-08T05:34:24.425Z,110.70
2023-09-08T05:36:51.881Z,109.70
2023-09-08T05:39:20.348Z,109.32
2023-09-08T05:41:49.282Z,110.40
2023-09-08T05:44:16.687Z,113.68
2023-09-08T05:46:43.884Z,109.93
2023-09-08T05:49:11.268Z,110.97
2023-09-08T05:51:38.415Z,109.72
2023-09-08T05:54:06.707Z,112.07
2023-09-08T05:56:35.149Z,111.63
2023-09-08T05:59:03.846Z,111.90
2023-09-08T06:01:32.340Z,116.20
2023-09-08T06:04:00.457Z,111.38
2023-09-08T06:06:30.222Z,117.32
2023-09-08T06:08:57.248Z,113.00
2023-09-08T06:11:24.662Z,115.47
2023-09-08T06:13:51.663Z,117.57
2023-09-08T06:16:20.117Z,114.35
2023-09-08T06:18:48.082Z,116.60
2023-09-08T06:21:18.686Z,114.80
2023-09-08T06:23:45.927Z,115.55
2023-09-08T06:26:14.633Z,117.35
2023-09-08T06:28:44.402Z,117.88
2023-09-08T06:31:11.432Z,117.75
2023-09-08T06:33:42.080Z,118.60
2023-09-08T06:36:09.121Z,118.25
2023-09-08T06:38:36.482Z,118.75
2023-09-08T06:41:10.642Z,117.80
2023-09-08T06:43:37.786Z,117.20
2023-09-08T06:46:10.099Z,117.30
2023-09-08T06:48:38.322Z,116.30
2023-09-08T06:51:07.465Z,119.38
2023-09-08T06:53:35.290Z,116.00
2023-09-08T06:56:02.356Z,117.97
2023-09-08T06:58:30.422Z,116.20
2023-09-08T07:00:57.876Z,116.13
2023-09-08T07:03:27.868Z,117.53
2023-09-08T07:05:56.063Z,116.60
2023-09-08T07:08:25.757Z,118.43
2023-09-08T07:10:54.606Z,116.93
2023-09-08T07:13:21.727Z,115.30
2023-09-08T07:15:48.778Z,115.88
2023-09-08T07:18:16.105Z,116.57
2023-09-08T07:20:47.901Z,117.45
2023-09-08T07:23:15.851Z,116.35
2023-09-08T07:25:47.820Z,117.63
2023-09-08T07:28:15.754Z,116.72
2023-09-08T07:30:43.702Z,117.80
2023-09-08T07:33:11.693Z,116.25
2023-09-08T07:35:40.324Z,116.10
2023-09-08T07:38:08.168Z,117.57
2023-09-08T07:40:35.722Z,117.97
2023-09-08T07:43:04.567Z,120.57
2023-09-08T07:45:31.654Z,123.05
2023-09-08T07:47:58.637Z,117.07
2023-09-08T07:50:28.099Z,115.75
2023-09-08T07:52:57.388Z,116.32
2023-09-08T07:55:28.375Z,117.70
2023-09-08T07:57:56.279Z,117.43
2023-09-08T08:00:24.908Z,117.35
2023-09-08T08:02:55.525Z,116.57
2023-09-08T08:05:23.035Z,117.63
2023-09-08T08:07:50.065Z,120.80
2023-09-08T08:10:17.079Z,118.40
2023-09-08T08:12:44.831Z,117.43
2023-09-08T08:15:12.274Z,116.88
2023-09-08T08:17:41.288Z,118.35
2023-09-08T08:20:10.872Z,117.00
2023-09-08T08:22:38.206Z,117.88
2023-09-08T08:25:06.251Z,120.05
2023-09-08T08:27:33.411Z,117.38
2023-09-08T08:30:02.510Z,118.25
2023-09-08T08:32:30.135Z,118.13
2023-09-08T08:34:58.580Z,117.95
2023-09-08T08:37:25.756Z,119.20
2023-09-08T08:39:53.853Z,117.65
2023-09-08T08:42:23.815Z,119.38
2023-09-08T08:44:51.651Z,117.32
2023-09-08T08:47:20.358Z,118.13
2023-09-08T08:49:50.036Z,118.55
2023-09-08T08:52:19.630Z,120.43
2023-09-08T08:54:47.395Z,119.50
2023-09-08T08:57:15.296Z,117.70
2023-09-08T08:59:45.234Z,119.13
2023-09-08T09:02:13.261Z,118.57
2023-09-08T09:04:40.727Z,120.55
2023-09-08T09:07:08.890Z,120.10
2023-09-08T09:09:37.159Z,118.43
2023-09-08T09:12:04.878Z,119.15
2023-09-08T09:14:34.546Z,120.32
2023-09-08T09:17:02.602Z,120.43
2023-09-08T09:19:31.646Z,119.63
2023-09-08T09:22:00.281Z,118.80
2023-09-08T09:24:33.936Z,119.55
2023-09-08T09:27:02.859Z,118.75
2023-09-08T09:29:30.638Z,118.63
2023-09-08T09:31:59.124Z,118.03
2023-09-08T09:34:26.356Z,118.70
2023-09-08T09:36:53.488Z,117.93
2023-09-08T09:39:21.773Z,119.38
2023-09-08T09:41:49.434Z,118.18
2023-09-08T09:44:18.001Z,118.38
2023-09-08T09:46:46.973Z,120.38
2023-09-08T09:49:15.161Z,117.85
2023-09-08T09:51:44.651Z,119.35
2023-09-08T09:54:12.637Z,118.90
2023-09-08T09:56:40.889Z,118.70
2023-09-08T09:59:10.442Z,118.75
2023-09-08T10:01:39.719Z,117.57
2023-09-08T10:04:07.533Z,117.78
2023-09-08T10:06:36.692Z,121.35
2023-09-08T10:09:06.127Z,121.35
2023-09-08T10:11:40.486Z,117.75
2023-09-08T10:14:12.359Z,118.88
2023-09-08T10:16:44.436Z,119.75
2023-09-08T10:19:12.497Z,116.60
2023-09-08T10:21:42.970Z,119.97
2023-09-08T10:24:16.539Z,119.22
2023-09-08T10:26:48.796Z,116.35
2023-09-08T10:29:16.052Z,117.30
2023-09-08T10:31:45.453Z,117.53
2023-09-08T10:34:12.974Z,117.57
2023-09-08T10:36:40.341Z,117.55
2023-09-08T10:39:32.914Z,118.20
2023-09-08T10:42:27.501Z,117.18
2023-09-08T10:44:59.599Z,117.30
2023-09-08T10:47:35.402Z,117.60
2023-09-08T10:50:02.733Z,117.22
2023-09-08T10:52:29.963Z,117.47
2023-09-08T10:54:57.705Z,116.63
2023-09-08T10:57:26.468Z,117.15
2023-09-08T10:59:57.092Z,118.40
2023-09-08T11:05:06.065Z,120.28
2023-09-08T11:07:36.106Z,117.68
2023-09-08T11:10:03.135Z,117.90
2023-09-08T11:12:30.252Z,116.63
2023-09-08T11:14:57.249Z,116.85
2023-09-08T11:17:27.031Z,117.30
2023-09-08T11:19:55.767Z,118.80
2023-09-08T11:22:27.441Z,118.35
2023-09-08T11:24:58.127Z,120.22
2023-09-08T11:27:25.285Z,116.53
2023-09-08T11:29:52.266Z,116.97
2023-09-08T11:32:19.394Z,116.97
2023-09-08T11:34:46.360Z,118.35
2023-09-08T11:37:17.235Z,116.57
2023-09-08T11:39:45.472Z,117.07
2023-09-08T11:42:14.295Z,119.38
2023-09-08T11:44:42.353Z,118.38
2023-09-08T11:47:10.795Z,120.10
2023-09-08T11:49:38.627Z,118.93
2023-09-08T11:52:06.572Z,116.95
2023-09-08T11:54:36.330Z,117.32
2023-09-08T11:57:05.489Z,118.57
2023-09-08T11:59:34.292Z,120.47
2023-09-08T12:02:02.099Z,116.05
2023-09-08T12:04:29.047Z,118.32
2023-09-08T12:06:57.257Z,117.32
2023-09-08T12:09:24.918Z,115.13
2023-09-08T12:11:53.320Z,116.18
2023-09-08T12:14:20.194Z,114.65
2023-09-08T12:16:47.433Z,118.60
2023-09-08T12:19:31.637Z,115.47
2023-09-08T12:22:01.217Z,117.85
2023-09-08T12:25:00.143Z,113.82
2023-09-08T12:27:28.600Z,114.63
2023-09-08T12:29:56.679Z,115.95
2023-09-08T12:32:24.638Z,115.53
2023-09-08T12:34:52.230Z,115.82
2023-09-08T12:37:22.192Z,116.82
2023-09-08T12:39:49.409Z,115.05
2023-09-08T12:42:16.396Z,115.85
2023-09-08T12:44:45.100Z,114.05
2023-09-08T12:47:15.786Z,116.50
2023-09-08T12:52:10.602Z,120.03
2023-09-08T12:54:37.646Z,115.38
2023-09-08T12:57:06.902Z,114.88
2023-09-08T12:59:34.182Z,119.15
2023-09-08T13:02:02.439Z,116.07
2023-09-08T13:04:29.372Z,115.13
2023-09-08T13:06:56.311Z,116.32
2023-09-08T13:09:26.217Z,114.88
2023-09-08T13:11:53.186Z,114.18
2023-09-08T13:14:20.090Z,117.35
2023-09-08T13:16:47.020Z,115.22
2023-09-08T13:19:15.407Z,115.07
2023-09-08T13:21:42.326Z,117.95
2023-09-08T13:24:10.166Z,115.70
2023-09-08T13:26:38.722Z,113.93
2023-09-08T13:29:06.909Z,116.53
2023-09-08T13:31:34.135Z,115.57
2023-09-08T13:34:01.278Z,115.20
2023-09-08T13:36:29.607Z,117.15
2023-09-08T13:38:56.735Z,115.10
2023-09-08T13:41:24.948Z,116.97
2023-09-08T13:43:51.860Z,114.07
2023-09-08T13:46:18.850Z,114.45
2023-09-08T13:48:46.495Z,113.97
2023-09-08T13:51:14.506Z,114.70
2023-09-08T13:53:47.351Z,114.35
2023-09-08T13:56:15.844Z,114.13
2023-09-08T13:58:50.099Z,115.90
2023-09-08T14:01:20.146Z,113.97
2023-09-08T14:06:21.243Z,115.32
2023-09-08T14:11:34.976Z,116.20
2023-09-08T14:14:11.069Z,117.85
2023-09-08T14:16:38.188Z,114.43
2023-09-08T14:19:06.242Z,113.97
2023-09-08T14:21:33.707Z,113.43
2023-09-08T14:24:02.175Z,113.90
2023-09-08T14:26:29.119Z,112.95
2023-09-08T14:28:56.129Z,115.13
2023-09-08T14:31:23.209Z,113.18
2023-09-08T14:33:50.364Z,116.85
2023-09-08T14:36:20.836Z,117.03
2023-09-08T14:38:48.303Z,115.38
2023-09-08T14:41:16.793Z,115.55
2023-09-08T14:43:43.868Z,115.55
2023-09-08T14:46:10.892Z,116.53
2023-09-08T14:48:37.977Z,115.22
2023-09-08T14:51:05.067Z,114.80
2023-09-08T14:53:32.847Z,116.03
2023-09-08T14:56:00.244Z,114.53
2023-09-08T14:58:33.058Z,114.82
2023-09-08T15:01:04.822Z,115.13
2023-09-08T15:03:32.866Z,114.45
2023-09-08T15:06:00.296Z,113.72
2023-09-08T15:08:27.477Z,118.63
2023-09-08T15:10:54.609Z,115.35
2023-09-08T15:13:23.807Z,115.82
2023-09-08T15:15:52.722Z,114.85
2023-09-08T15:18:23.765Z,118.90
2023-09-08T15:20:54.983Z,114.10
2023-09-08T15:23:22.472Z,114.70
2023-09-08T15:25:53.476Z,114.38
2023-09-08T15:28:21.391Z,116.00
2023-09-08T15:30:49.602Z,115.15
2023-09-08T15:33:19.027Z,113.43
2023-09-08T15:35:46.405Z,118.47
2023-09-08T15:38:14.081Z,115.25
2023-09-08T15:41:18.006Z,113.30
2023-09-08T15:43:48.142Z,115.50
2023-09-08T15:46:15.602Z,116.03
2023-09-08T15:48:44.121Z,114.93
2023-09-08T15:51:11.311Z,115.80
2023-09-08T15:53:39.036Z,119.50
2023-09-08T15:56:08.156Z,117.47
2023-09-08T15:58:35.479Z,114.85
2023-09-08T16:01:02.541Z,113.13
2023-09-08T16:03:29.876Z,114.50
2023-09-08T16:05:58.440Z,117.32
2023-09-08T16:08:25.533Z,115.65
2023-09-08T16:10:53.181Z,116.18
2023-09-08T16:13:20.940Z,114.80
2023-09-08T16:15:50.874Z,115.18
2023-09-08T16:18:18.835Z,116.23
2023-09-08T16:20:45.791Z,113.97
2023-09-08T16:23:14.065Z,119.28
2023-09-08T16:25:41.120Z,115.07
2023-09-08T16:28:08.297Z,122.25
2023-09-08T16:30:36.049Z,116.68
2023-09-08T16:33:03.354Z,115.35
2023-09-08T16:35:30.963Z,115.32
2023-09-08T16:37:57.919Z,116.03
2023-09-08T16:40:26.956Z,120.32
2023-09-08T16:42:53.951Z,115.28
2023-09-08T16:45:20.930Z,120.88
2023-09-08T16:47:47.878Z,118.20
2023-09-08T16:50:14.885Z,114.13
2023-09-08T16:52:41.913Z,113.53
2023-09-08T16:55:12.449Z,118.57
2023-09-08T17:00:09.434Z,112.95
2023-09-08T17:02:36.813Z,115.32
2023-09-08T17:05:04.659Z,115.22
2023-09-08T17:07:31.665Z,117.00
2023-09-08T17:09:58.986Z,116.75
2023-09-08T17:12:27.416Z,113.03
2023-09-08T17:14:56.005Z,113.00
2023-09-08T17:17:23.246Z,115.07
2023-09-08T17:19:50.394Z,112.40
2023-09-08T17:22:17.573Z,112.18
2023-09-08T17:24:44.650Z,114.95
2023-09-08T17:27:11.648Z,112.63
2023-09-08T17:29:38.555Z,114.50
2023-09-08T17:32:07.165Z,114.25
2023-09-08T17:34:34.352Z,115.72
2023-09-08T17:37:01.535Z,116.10
2023-09-08T17:39:28.690Z,114.53
2023-09-08T17:41:55.777Z,112.95
2023-09-08T17:44:22.778Z,112.43
2023-09-08T17:46:50.465Z,112.30
2023-09-08T17:49:18.905Z,113.93
2023-09-08T17:51:45.834Z,112.78
2023-09-08T17:54:13.146Z,112.28
2023-09-08T17:56:41.119Z,116.32
2023-09-08T17:59:08.277Z,114.35
2023-09-08T18:01:38.057Z,115.50
2023-09-08T18:04:07.061Z,114.67
2023-09-08T18:06:35.668Z,115.60
2023-09-08T18:09:02.751Z,112.63
2023-09-08T18:11:29.904Z,115.25
2023-09-08T18:13:57.258Z,116.47
2023-09-08T18:16:24.659Z,114.43
2023-09-08T18:18:51.754Z,115.30
2023-09-08T18:21:18.650Z,118.32
2023-09-08T18:23:48.044Z,117.68
2023-09-08T18:26:17.498Z,116.05
2023-09-08T18:28:44.980Z,117.82
2023-09-08T18:31:12.699Z,116.18
2023-09-08T18:33:40.684Z,116.72
2023-09-08T18:36:08.141Z,117.75
2023-09-08T18:38:35.448Z,116.50
2023-09-08T18:41:03.916Z,121.50
2023-09-08T18:43:31.084Z,120.18
2023-09-08T18:45:58.022Z,119.53
2023-09-08T18:48:25.076Z,119.63
2023-09-08T18:50:52.399Z,115.65
2023-09-08T18:53:19.468Z,117.80
2023-09-08T18:55:47.016Z,115.75
2023-09-08T18:58:16.179Z,117.45
2023-09-08T19:00:44.863Z,115.88
2023-09-08T19:03:12.106Z,115.72
2023-09-08T19:05:41.151Z,117.43
2023-09-08T19:08:08.267Z,116.68
2023-09-08T19:10:35.417Z,115.57
2023-09-08T19:13:02.415Z,115.75
2023-09-08T19:15:30.857Z,116.05
2023-09-08T19:17:57.890Z,115.93
2023-09-08T19:20:25.008Z,117.93
2023-09-08T19:22:51.954Z,114.18
2023-09-08T19:25:18.961Z,118.55
2023-09-08T19:27:45.951Z,113.80
2023-09-08T19:30:13.595Z,115.28
2023-09-08T19:32:42.480Z,116.82
2023-09-08T19:35:10.047Z,115.95
2023-09-08T19:37:36.926Z,118.30
2023-09-08T19:40:04.819Z,114.97
2023-09-08T19:42:31.841Z,113.97
2023-09-08T19:44:58.765Z,115.53
2023-09-08T19:47:25.803Z,112.65
2023-09-08T19:49:54.096Z,115.20
2023-09-08T19:52:20.951Z,113.72
2023-09-08T19:54:48.351Z,113.43
2023-09-08T19:57:15.253Z,113.72
2023-09-08T19:59:42.440Z,113.72
2023-09-08T20:02:10.456Z,113.28
2023-09-08T20:04:37.682Z,116.47
2023-09-08T20:07:06.070Z,116.65
2023-09-08T20:09:33.239Z,114.38
2023-09-08T20:12:00.172Z,113.63
2023-09-08T20:14:29.855Z,114.15
2023-09-08T20:16:56.780Z,116.60
2023-09-08T20:19:23.896Z,113.43
2023-09-08T20:21:50.810Z,116.78
2023-09-08T20:24:19.492Z,115.05
2023-09-08T20:26:46.573Z,117.50
2023-09-08T20:29:14.005Z,117.65
2023-09-08T20:31:41.026Z,114.70
2023-09-08T20:34:07.943Z,118.25
2023-09-08T20:36:34.893Z,114.75
2023-09-08T20:39:01.840Z,116.80
2023-09-08T20:41:30.114Z,114.90
2023-09-08T20:43:57.047Z,114.18
2023-09-08T20:46:24.008Z,113.47
2023-09-08T20:48:51.427Z,113.85
2023-09-08T20:51:24.157Z,114.05
2023-09-08T20:53:51.109Z,113.32
2023-09-08T20:56:18.579Z,116.22
2023-09-08T20:58:47.165Z,113.40
2023-09-08T21:01:14.211Z,113.18
2023-09-08T21:03:41.354Z,115.18
2023-09-08T21:06:08.601Z,116.25
2023-09-08T21:08:35.566Z,113.55
2023-09-08T21:11:03.474Z,113.03
2023-09-08T21:13:30.730Z,113.13
2023-09-08T21:15:59.588Z,116.75
2023-09-08T21:18:26.597Z,114.78
2023-09-08T21:20:53.521Z,113.00
2023-09-08T21:23:20.553Z,116.10
2023-09-08T21:25:50.746Z,113.45
2023-09-08T21:28:17.799Z,114.72
2023-09-08T21:30:45.442Z,123.78
2023-09-08T21:33:14.390Z,114.50
2023-09-08T21:35:41.600Z,114.93
2023-09-08T21:38:08.525Z,115.90
2023-09-08T21:40:39.148Z,114.50
2023-09-08T21:43:06.160Z,118.63
2023-09-08T21:45:33.091Z,112.75
2023-09-08T21:48:00.000Z,114.20
2023-09-08T21:50:28.332Z,118.18
2023-09-08T21:52:55.287Z,117.63
2023-09-08T21:55:22.804Z,114.75
2023-09-08T21:57:50.047Z,120.53
2023-09-08T22:00:18.715Z,114.78
2023-09-08T22:02:45.815Z,114.70
2023-09-08T22:05:13.221Z,118.43
2023-09-08T22:07:41.726Z,117.28
2023-09-08T22:10:09.418Z,114.25
2023-09-08T22:12:36.461Z,116.78
2023-09-08T22:15:04.432Z,116.88
2023-09-08T22:17:33.059Z,114.80
2023-09-08T22:20:00.056Z,115.70
2023-09-08T22:22:26.937Z,116.20
2023-09-08T22:24:55.253Z,115.32
2023-09-08T22:27:22.374Z,120.22
2023-09-08T22:29:49.181Z,114.97
2023-09-08T22:32:16.111Z,115.30
2023-09-08T22:34:42.996Z,118.40
2023-09-08T22:37:10.193Z,117.60
2023-09-08T22:39:37.001Z,118.38
2023-09-08T22:42:05.809Z,117.28
2023-09-08T22:44:32.846Z,121.72
2023-09-08T22:46:59.936Z,117.70
2023-09-08T22:49:27.477Z,118.18
2023-09-08T22:51:54.957Z,115.85
2023-09-08T22:54:22.123Z,117.55
2023-09-08T22:56:49.082Z,113.60
2023-09-08T22:59:17.520Z,118.85
2023-09-08T23:01:44.444Z,113.70
2023-09-08T23:04:11.383Z,116.30
2023-09-08T23:06:38.314Z,119.82
2023-09-08T23:09:05.231Z,118.05
2023-09-08T23:11:32.438Z,115.03
2023-09-08T23:13:59.594Z,117.15
2023-09-08T23:16:28.058Z,117.43
2023-09-08T23:18:55.929Z,115.57
2023-09-08T23:21:22.904Z,114.43
2023-09-08T23:23:55.133Z,112.35
2023-09-08T23:26:24.938Z,114.53
2023-09-08T23:28:55.971Z,114.25
2023-09-08T23:31:23.206Z,115.22
2023-09-08T23:33:52.032Z,117.38
2023-09-08T23:36:18.938Z,116.63
2023-09-08T23:38:45.812Z,113.78
2023-09-08T23:41:12.854Z,115.93
2023-09-08T23:43:40.158Z,112.43
2023-09-08T23:46:07.457Z,117.28
2023-09-08T23:48:34.391Z,114.30
2023-09-08T23:51:02.757Z,110.82
2023-09-08T23:53:30.062Z,115.47
2023-09-08T23:55:57.177Z,118.45
2023-09-08T23:58:24.163Z,114.10
